Time;durP1;ratioP1;P1;durP2;ratioP2;P2;SDS_P1;SDS_P2;PMS_P1;PMS_P2;Temp;Humidity;BMP_temperature;BMP_pressure;BME280_temperature;BME280_humidity;BME280_pressure;Samples;Min_cycle;Max_cycle;Signal;HPM_P1;HPM_P2
2023/01/07 00:01:35;;;;;;;2.38;1.75;;;9.30;99.90;;;;;;6007625;23;20033;-69
2023/01/07 00:04:03;;;;;;;1.45;1.10;;;9.30;99.90;;;;;;6013941;23;20036;-69
2023/01/07 00:06:32;;;;;;;1.48;1.25;;;9.20;99.90;;;;;;6008885;23;20041;-69
2023/01/07 00:09:00;;;;;;;1.70;1.58;;;9.20;99.90;;;;;;6015765;23;20037;-68
2023/01/07 00:11:29;;;;;;;4.15;1.50;;;9.30;99.90;;;;;;6010660;23;20121;-69
2023/01/07 00:13:58;;;;;;;2.85;1.83;;;9.30;99.90;;;;;;6037407;23;20546;-70
2023/01/07 00:16:28;;;;;;;1.63;1.48;;;9.30;99.90;;;;;;5986087;23;20064;-69
2023/01/07 00:18:56;;;;;;;3.63;1.92;;;9.30;99.90;;;;;;6016237;23;20037;-69
2023/01/07 00:21:24;;;;;;;2.90;2.33;;;9.40;99.90;;;;;;6011508;23;20032;-69
2023/01/07 00:23:56;;;;;;;5.00;2.25;;;9.40;99.90;;;;;;6014603;23;20035;-69
2023/01/07 00:26:26;;;;;;;5.03;2.78;;;9.40;99.90;;;;;;6013748;23;20039;-70
2023/01/07 00:28:53;;;;;;;3.88;2.55;;;9.40;99.90;;;;;;6005748;23;20111;-70
2023/01/07 00:31:22;;;;;;;6.82;3.28;;;9.40;99.90;;;;;;6009766;23;20527;-69
2023/01/07 00:36:28;;;;;;;2.22;2.03;;;9.40;99.90;;;;;;6014293;23;20033;-71
2023/01/07 00:39:01;;;;;;;3.17;2.15;;;9.30;99.90;;;;;;6016125;23;20273;-69
2023/01/07 00:41:28;;;;;;;2.35;2.15;;;9.30;99.90;;;;;;6009184;23;20051;-68
2023/01/07 00:43:55;;;;;;;2.20;1.85;;;9.40;99.90;;;;;;6016867;23;20036;-69
2023/01/07 00:46:22;;;;;;;1.50;1.40;;;9.40;99.90;;;;;;5987862;23;20041;-68
2023/01/07 00:48:50;;;;;;;2.28;2.08;;;9.40;99.90;;;;;;6013712;23;20460;-69
2023/01/07 00:51:17;;;;;;;1.83;1.67;;;9.40;99.90;;;;;;6013581;23;20033;-69
2023/01/07 00:53:45;;;;;;;2.20;2.00;;;9.40;99.90;;;;;;6012129;23;20298;-69
2023/01/07 00:56:19;;;;;;;2.92;2.20;;;9.40;99.90;;;;;;6014859;23;20370;-69
2023/01/07 00:58:46;;;;;;;2.17;1.97;;;9.40;99.90;;;;;;6011526;23;20041;-68
2023/01/07 01:01:13;;;;;;;2.50;1.92;;;9.50;99.90;;;;;;6010753;23;20429;-68
2023/01/07 01:03:40;;;;;;;2.35;2.15;;;9.40;99.90;;;;;;6008842;23;20224;-68
2023/01/07 01:06:11;;;;;;;2.95;1.73;;;9.50;99.90;;;;;;6012500;23;20064;-68
2023/01/07 01:08:41;;;;;;;2.28;1.77;;;9.50;99.90;;;;;;6011976;23;20523;-68
2023/01/07 01:11:10;;;;;;;2.08;1.77;;;9.50;99.90;;;;;;6013741;23;20116;-68
2023/01/07 01:13:38;;;;;;;2.10;1.90;;;9.50;99.90;;;;;;6011735;23;20048;-68
2023/01/07 01:16:14;;;;;;;2.28;2.05;;;9.50;99.90;;;;;;6015863;23;20261;-69
2023/01/07 01:18:41;;;;;;;2.40;1.88;;;9.50;99.90;;;;;;5989769;23;20554;-71
2023/01/07 01:21:11;;;;;;;2.50;2.30;;;9.50;99.90;;;;;;6013904;23;20025;-69
2023/01/07 01:23:38;;;;;;;2.72;2.42;;;9.50;99.90;;;;;;6033973;23;20025;-68
2023/01/07 01:26:08;;;;;;;2.17;1.98;;;9.50;99.90;;;;;;6015953;23;20033;-69
2023/01/07 01:28:35;;;;;;;2.70;1.90;;;9.50;99.90;;;;;;6007876;23;20124;-70
2023/01/07 01:31:02;;;;;;;2.90;2.40;;;9.50;99.90;;;;;;6010830;23;20104;-69
2023/01/07 01:33:39;;;;;;;2.22;1.80;;;9.50;99.90;;;;;;6011149;23;20421;-69
2023/01/07 01:36:09;;;;;;;2.50;2.30;;;9.50;99.90;;;;;;6015157;23;20112;-69
2023/01/07 01:38:36;;;;;;;2.53;2.33;;;9.50;99.90;;;;;;6011109;23;20033;-69
2023/01/07 01:41:03;;;;;;;2.35;2.13;;;9.50;99.90;;;;;;6014594;23;20026;-68
2023/01/07 01:43:36;;;;;;;3.05;2.53;;;9.40;99.90;;;;;;6010648;23;20029;-67
2023/01/07 01:46:15;;;;;;;2.97;2.35;;;9.40;99.90;;;;;;6011808;23;20029;-69
2023/01/07 01:48:58;;;;;;;3.28;2.97;;;9.40;99.90;;;;;;6013707;23;20049;-69
2023/01/07 01:51:33;;;;;;;3.90;2.90;;;9.40;99.90;;;;;;5988382;23;20033;-68
2023/01/07 01:54:03;;;;;;;5.80;2.90;;;9.40;99.90;;;;;;6038874;23;20040;-68
2023/01/07 01:56:38;;;;;;;3.17;2.78;;;9.40;99.90;;;;;;6013934;23;20523;-69
2023/01/07 01:59:10;;;;;;;3.25;2.95;;;9.30;99.90;;;;;;6015516;23;20033;-69
2023/01/07 02:01:37;;;;;;;3.97;2.67;;;9.40;99.90;;;;;;6006741;23;20033;-68
2023/01/07 02:04:12;;;;;;;3.05;2.75;;;9.40;99.90;;;;;;6014810;23;20554;-69
2023/01/07 02:07:10;;;;;;;5.63;2.88;;;9.40;99.90;;;;;;6042600;23;20082;-68
2023/01/07 02:09:41;;;;;;;3.40;2.42;;;9.40;99.90;;;;;;6011930;23;20037;-68
2023/01/07 02:12:56;;;;;;;2.10;1.90;;;9.40;99.90;;;;;;6013131;23;20108;-68
2023/01/07 02:15:35;;;;;;;2.45;2.13;;;9.40;99.90;;;;;;5978898;23;20128;-68
2023/01/07 02:18:34;;;;;;;3.15;2.20;;;9.50;99.90;;;;;;6015723;23;20033;-68
2023/01/07 02:21:16;;;;;;;3.70;2.20;;;9.50;99.90;;;;;;5981444;23;20039;-68
2023/01/07 02:24:14;;;;;;;4.35;2.88;;;9.50;99.90;;;;;;6011746;23;20043;-68
2023/01/07 02:26:49;;;;;;;4.22;2.85;;;9.50;99.90;;;;;;6009462;23;20032;-69
2023/01/07 02:29:19;;;;;;;3.85;2.33;;;9.50;99.90;;;;;;6013311;23;20395;-69
2023/01/07 02:32:14;;;;;;;4.18;3.00;;;9.50;99.90;;;;;;6006930;23;20554;-69
2023/01/07 02:35:06;;;;;;;2.65;2.45;;;9.50;99.90;;;;;;6007425;23;20036;-67
2023/01/07 02:38:12;;;;;;;3.30;2.85;;;9.50;99.90;;;;;;6013211;23;20033;-68
2023/01/07 02:41:07;;;;;;;2.77;2.57;;;9.50;99.90;;;;;;6055926;23;20479;-68
2023/01/07 02:43:41;;;;;;;;;;;9.50;99.90;;;;;;6011103;23;20335;-68
2023/01/07 02:46:26;;;;;;;4.50;2.17;;;9.50;99.90;;;;;;6008468;23;19920;-68
2023/01/07 02:48:53;;;;;;;2.13;2.03;;;9.60;99.90;;;;;;6011616;23;20103;-68
2023/01/07 02:51:20;;;;;;;5.82;2.50;;;9.60;99.90;;;;;;6010799;23;20250;-68
2023/01/07 02:53:47;;;;;;;3.93;2.73;;;9.60;99.90;;;;;;6014557;23;20033;-69
2023/01/07 02:56:30;;;;;;;4.53;3.20;;;9.70;99.90;;;;;;6012567;23;20238;-67
2023/01/07 02:59:28;;;;;;;3.00;2.80;;;9.70;99.90;;;;;;6012677;23;20040;-68
2023/01/07 03:02:13;;;;;;;3.58;3.35;;;9.70;99.90;;;;;;6043108;23;20042;-70
2023/01/07 03:04:52;;;;;;;;;;;9.70;99.90;;;;;;5986249;23;20688;-69
2023/01/07 03:07:51;;;;;;;3.20;2.70;;;9.70;99.90;;;;;;6012097;23;20422;-70
2023/01/07 03:10:37;;;;;;;2.90;2.70;;;9.70;99.90;;;;;;5935491;23;20030;-69
2023/01/07 03:13:07;;;;;;;3.45;3.15;;;9.70;99.90;;;;;;6013942;23;20103;-70
2023/01/07 03:15:40;;;;;;;3.75;3.45;;;9.60;99.90;;;;;;6013690;23;20120;-69
2023/01/07 03:18:29;;;;;;;3.60;3.30;;;9.60;99.90;;;;;;5174083;23;20096;-70
2023/01/07 03:21:10;;;;;;;4.15;3.33;;;9.60;99.90;;;;;;4991979;28;20041;-70
2023/01/07 03:23:42;;;;;;;3.63;3.33;;;9.60;99.90;;;;;;4991562;28;20053;-70
2023/01/07 03:26:11;;;;;;;3.70;3.50;;;9.60;99.90;;;;;;4994630;28;20061;-69
2023/01/07 03:28:40;;;;;;;4.05;3.75;;;9.60;99.90;;;;;;4974116;28;20139;-71
2023/01/07 03:31:11;;;;;;;3.60;3.38;;;9.50;99.90;;;;;;4973433;28;20411;-70
2023/01/07 03:33:50;;;;;;;4.07;3.78;;;9.50;99.90;;;;;;4988743;28;20046;-70
2023/01/07 03:36:21;;;;;;;3.60;3.25;;;9.50;99.90;;;;;;4992051;28;20050;-70
2023/01/07 03:38:51;;;;;;;4.00;3.70;;;9.60;99.90;;;;;;4991212;28;20052;-70
2023/01/07 03:44:04;;;;;;;4.00;3.80;;;9.60;99.90;;;;;;4995367;28;20045;-69
2023/01/07 03:46:33;;;;;;;4.47;4.18;;;9.60;99.90;;;;;;4991829;28;20041;-69
2023/01/07 03:49:00;;;;;;;4.75;4.30;;;9.50;99.90;;;;;;4991908;28;20034;-69
2023/01/07 03:51:27;;;;;;;4.40;4.20;;;9.60;99.90;;;;;;4990647;28;20482;-69
2023/01/07 03:53:54;;;;;;;4.85;4.45;;;9.60;99.90;;;;;;4975943;28;20049;-69
2023/01/07 03:56:21;;;;;;;5.15;4.85;;;9.50;99.90;;;;;;4991607;28;20140;-69
2023/01/07 03:58:48;;;;;;;5.10;4.80;;;9.60;99.90;;;;;;4992216;28;20132;-69
2023/01/07 04:01:15;;;;;;;5.40;4.90;;;9.50;99.90;;;;;;4998661;28;20265;-69
2023/01/07 04:03:41;;;;;;;5.20;4.90;;;9.50;99.90;;;;;;5010380;28;20053;-68
2023/01/07 04:06:08;;;;;;;5.60;5.25;;;9.50;99.90;;;;;;4977404;28;20085;-69
2023/01/07 04:08:36;;;;;;;5.57;5.18;;;9.50;99.90;;;;;;4991420;28;20348;-69
2023/01/07 04:11:03;;;;;;;5.57;5.22;;;9.40;99.90;;;;;;4990572;28;20042;-69
2023/01/07 04:13:30;;;;;;;5.22;4.78;;;9.40;99.90;;;;;;4992093;28;20394;-69
2023/01/07 04:15:56;;;;;;;4.53;4.13;;;9.30;99.90;;;;;;4991303;28;20153;-69
2023/01/07 04:18:23;;;;;;;6.38;3.92;;;9.20;99.90;;;;;;4991722;28;20162;-69
2023/01/07 04:20:50;;;;;;;5.80;4.10;;;9.20;99.90;;;;;;4974303;28;20049;-69
2023/01/07 04:23:17;;;;;;;4.35;3.97;;;9.10;99.90;;;;;;4991985;28;20053;-69
2023/01/07 04:25:47;;;;;;;3.83;3.53;;;9.10;99.90;;;;;;4975768;28;20038;-69
2023/01/07 04:28:17;;;;;;;4.70;4.30;;;9.00;99.90;;;;;;4992119;28;20085;-68
2023/01/07 04:30:44;;;;;;;4.38;3.95;;;9.00;99.90;;;;;;4972724;28;20409;-69
2023/01/07 04:33:11;;;;;;;5.60;4.78;;;8.90;99.90;;;;;;4993503;28;20550;-69
2023/01/07 04:35:39;;;;;;;5.65;4.60;;;8.90;99.90;;;;;;4974828;28;20127;-69
2023/01/07 04:38:06;;;;;;;6.72;4.75;;;8.90;99.90;;;;;;4989469;28;20061;-69
2023/01/07 04:40:33;;;;;;;5.15;4.68;;;8.70;99.90;;;;;;4992645;28;20140;-69
2023/01/07 04:43:01;;;;;;;5.22;4.72;;;8.70;99.90;;;;;;4975117;28;20057;-69
2023/01/07 04:45:27;;;;;;;5.78;5.15;;;8.60;99.90;;;;;;4990599;28;20101;-69
2023/01/07 04:47:56;;;;;;;8.45;6.25;;;8.60;99.90;;;;;;4990622;28;20041;-68
2023/01/07 04:50:23;;;;;;;7.43;5.78;;;8.60;99.90;;;;;;4990103;28;20149;-69
2023/01/07 04:52:51;;;;;;;6.85;6.15;;;8.60;99.90;;;;;;4991451;28;20654;-69
2023/01/07 04:55:18;;;;;;;6.65;5.65;;;8.60;99.90;;;;;;4990808;28;20042;-68
2023/01/07 04:57:46;;;;;;;6.45;5.88;;;8.60;99.90;;;;;;4988905;28;20805;-68
2023/01/07 05:00:14;;;;;;;6.55;5.95;;;8.50;99.90;;;;;;4974281;28;20523;-68
2023/01/07 05:02:44;;;;;;;6.20;5.47;;;8.50;99.90;;;;;;4974138;28;20406;-68
2023/01/07 05:05:11;;;;;;;4.95;4.55;;;8.50;99.90;;;;;;4992571;28;20118;-70
2023/01/07 05:07:38;;;;;;;5.80;5.30;;;8.50;99.90;;;;;;4990541;28;20048;-69
2023/01/07 05:10:07;;;;;;;5.85;5.20;;;8.50;99.90;;;;;;4973922;28;20436;-69
2023/01/07 05:12:35;;;;;;;5.82;4.88;;;8.50;99.90;;;;;;4989353;28;20046;-69
2023/01/07 05:15:04;;;;;;;5.28;4.85;;;8.50;99.90;;;;;;4989237;28;20050;-69
2023/01/07 05:17:31;;;;;;;6.25;4.57;;;8.50;99.90;;;;;;4972703;28;20057;-69
2023/01/07 05:20:00;;;;;;;7.35;5.05;;;8.50;99.90;;;;;;5001973;28;20038;-69
2023/01/07 05:22:28;;;;;;;5.28;4.78;;;8.40;99.90;;;;;;4987285;28;20050;-69
2023/01/07 05:24:54;;;;;;;5.55;5.00;;;8.40;99.90;;;;;;4989636;28;20057;-69
2023/01/07 05:27:23;;;;;;;6.38;5.72;;;8.40;99.90;;;;;;4985818;28;20049;-69
2023/01/07 05:29:50;;;;;;;6.57;5.40;;;8.50;99.90;;;;;;4989498;28;20146;-68
2023/01/07 05:32:17;;;;;;;7.82;6.55;;;8.40;99.90;;;;;;4989505;28;20057;-68
2023/01/07 05:34:44;;;;;;;11.30;7.30;;;8.50;99.90;;;;;;4989282;28;20416;-68
2023/01/07 05:37:11;;;;;;;9.95;7.38;;;8.50;99.90;;;;;;4973038;28;20038;-69
2023/01/07 05:39:40;;;;;;;10.75;7.88;;;8.50;99.90;;;;;;4974193;28;20133;-68
2023/01/07 05:42:07;;;;;;;10.40;7.90;;;8.50;99.90;;;;;;4972138;28;20431;-69
2023/01/07 05:44:34;;;;;;;10.50;8.15;;;8.50;99.90;;;;;;4990136;28;20049;-69
2023/01/07 05:47:01;;;;;;;13.75;9.07;;;8.50;99.90;;;;;;4990132;28;20061;-69
2023/01/07 05:49:28;;;;;;;12.35;9.43;;;8.50;99.90;;;;;;4991394;28;20034;-69
2023/01/07 05:51:55;;;;;;;12.50;10.10;;;8.50;99.90;;;;;;4988342;28;20057;-68
2023/01/07 05:54:21;;;;;;;13.82;10.27;;;8.50;99.90;;;;;;4972468;28;20365;-69
2023/01/07 05:56:48;;;;;;;16.02;11.35;;;8.50;99.90;;;;;;4989938;28;20038;-69
2023/01/07 05:59:16;;;;;;;16.10;11.57;;;8.50;99.90;;;;;;5016642;28;20096;-68
2023/01/07 06:01:43;;;;;;;12.32;10.13;;;8.50;99.90;;;;;;4975916;28;20057;-69
2023/01/07 06:04:09;;;;;;;16.20;10.48;;;8.40;99.90;;;;;;4992125;28;20042;-69
2023/01/07 06:06:36;;;;;;;14.15;11.52;;;8.50;99.90;;;;;;4989098;28;20305;-69
2023/01/07 06:09:03;;;;;;;16.75;11.43;;;8.50;99.90;;;;;;4993790;28;20077;-69
2023/01/07 06:11:31;;;;;;;15.85;11.27;;;8.40;99.90;;;;;;4992239;28;20394;-69
2023/01/07 06:13:57;;;;;;;18.40;12.57;;;8.50;99.90;;;;;;4993480;28;20050;-69
2023/01/07 06:16:24;;;;;;;19.02;13.05;;;8.50;99.90;;;;;;4993382;28;20450;-69
2023/01/07 06:18:51;;;;;;;18.25;13.13;;;8.40;99.90;;;;;;4992406;28;20096;-69
2023/01/07 06:21:17;;;;;;;21.52;14.25;;;8.40;99.90;;;;;;4990999;28;20053;-68
2023/01/07 06:23:44;;;;;;;21.95;14.80;;;8.40;99.90;;;;;;4994487;28;20489;-69
2023/01/07 06:26:10;;;;;;;21.60;13.93;;;8.40;99.90;;;;;;4990890;28;20516;-69
2023/01/07 06:28:37;;;;;;;20.13;14.25;;;8.30;99.90;;;;;;4994135;28;20053;-69
2023/01/07 06:31:04;;;;;;;20.83;14.52;;;8.30;99.90;;;;;;4992999;28;20042;-69
2023/01/07 06:33:30;;;;;;;18.30;13.57;;;8.30;99.90;;;;;;4992303;28;20052;-69
2023/01/07 06:35:59;;;;;;;22.60;14.93;;;8.20;99.90;;;;;;4990125;28;20140;-68
2023/01/07 06:38:25;;;;;;;20.45;14.77;;;8.20;99.90;;;;;;4993866;28;20030;-69
2023/01/07 06:40:52;;;;;;;21.05;13.48;;;8.20;99.90;;;;;;4994105;28;20073;-69
2023/01/07 06:43:19;;;;;;;23.50;15.48;;;8.20;99.90;;;;;;4995483;28;20034;-69
2023/01/07 06:45:45;;;;;;;25.80;15.48;;;8.20;99.90;;;;;;4997874;28;20413;-69
2023/01/07 06:48:12;;;;;;;24.42;16.17;;;8.20;99.90;;;;;;4991877;28;20124;-69
2023/01/07 06:50:39;;;;;;;26.88;15.45;;;8.20;99.90;;;;;;4991353;28;20045;-69
2023/01/07 06:53:05;;;;;;;25.00;15.77;;;8.20;99.90;;;;;;4991936;28;20439;-68
2023/01/07 06:55:32;;;;;;;23.55;16.05;;;8.20;99.90;;;;;;4990611;28;20072;-68
2023/01/07 06:57:58;;;;;;;23.30;14.98;;;8.20;99.90;;;;;;4988723;28;20118;-68
2023/01/07 07:00:25;;;;;;;25.65;15.80;;;8.10;99.90;;;;;;4991660;28;20123;-69
2023/01/07 07:02:52;;;;;;;26.63;17.20;;;8.10;99.90;;;;;;4991272;28;20072;-68
2023/01/07 07:05:19;;;;;;;29.15;17.85;;;8.10;99.90;;;;;;4990691;28;20125;-69
2023/01/07 07:07:45;;;;;;;28.05;16.38;;;8.10;99.90;;;;;;4992356;28;20058;-69
2023/01/07 07:10:12;;;;;;;25.15;15.93;;;8.00;99.90;;;;;;4989800;28;20133;-69
2023/01/07 07:12:39;;;;;;;28.50;16.02;;;8.00;99.90;;;;;;4987106;28;20053;-69
2023/01/07 07:15:07;;;;;;;25.30;15.32;;;7.90;99.90;;;;;;4991525;28;20088;-69
2023/01/07 07:17:34;;;;;;;24.85;16.23;;;7.90;99.90;;;;;;4991982;28;20038;-69
2023/01/07 07:20:00;;;;;;;26.95;16.70;;;7.90;99.90;;;;;;4985918;28;20046;-68
2023/01/07 07:22:27;;;;;;;26.73;15.77;;;7.90;99.90;;;;;;4992834;28;20428;-68
2023/01/07 07:24:54;;;;;;;22.40;14.93;;;7.90;99.90;;;;;;4997127;28;20049;-68
2023/01/07 07:27:20;;;;;;;23.92;16.25;;;7.90;99.90;;;;;;5019829;28;20034;-69
2023/01/07 07:29:47;;;;;;;24.20;15.27;;;7.80;99.90;;;;;;4994585;28;20099;-68
2023/01/07 07:32:14;;;;;;;25.50;15.85;;;7.80;99.90;;;;;;4993770;28;20034;-68
2023/01/07 07:34:40;;;;;;;22.60;14.88;;;7.80;99.90;;;;;;4994953;28;20049;-67
2023/01/07 07:37:07;;;;;;;25.88;15.43;;;7.80;99.90;;;;;;4994455;28;20053;-68
2023/01/07 07:39:34;;;;;;;23.92;16.17;;;7.80;99.90;;;;;;4997011;28;20287;-68
2023/01/07 07:42:04;;;;;;;26.13;16.45;;;7.80;99.90;;;;;;5016028;28;20125;-68
2023/01/07 07:44:31;;;;;;;27.10;16.02;;;7.80;99.90;;;;;;5016386;28;20041;-68
2023/01/07 07:46:57;;;;;;;26.88;16.55;;;7.80;99.90;;;;;;5013950;28;20062;-67
2023/01/07 07:49:24;;;;;;;26.17;15.75;;;7.80;99.90;;;;;;5013484;28;20129;-68
2023/01/07 07:51:51;;;;;;;25.02;16.10;;;7.80;99.90;;;;;;4989078;28;20060;-68
2023/01/07 07:54:18;;;;;;;22.08;14.52;;;7.80;99.90;;;;;;5012179;28;20613;-68
2023/01/07 07:56:45;;;;;;;22.92;15.50;;;7.80;99.90;;;;;;5015813;28;20133;-68
2023/01/07 07:59:11;;;;;;;24.23;15.38;;;7.80;99.90;;;;;;4975629;28;20233;-68
2023/01/07 08:01:38;;;;;;;22.05;13.80;;;7.80;99.90;;;;;;4988289;28;20062;-68
2023/01/07 08:04:05;;;;;;;21.00;13.45;;;7.80;99.90;;;;;;4987790;28;20149;-68
2023/01/07 08:06:33;;;;;;;24.95;14.73;;;7.80;99.90;;;;;;5010579;28;20042;-69
2023/01/07 08:09:00;;;;;;;23.58;14.25;;;7.80;99.90;;;;;;4992657;28;20499;-69
2023/01/07 08:11:26;;;;;;;20.25;15.02;;;7.80;99.90;;;;;;4988030;28;20495;-68
2023/01/07 08:13:53;;;;;;;24.08;16.08;;;7.80;99.90;;;;;;4987987;28;20280;-67
2023/01/07 08:16:19;;;;;;;18.20;12.18;;;7.80;99.90;;;;;;4986824;28;20518;-69
2023/01/07 08:18:46;;;;;;;18.48;13.63;;;7.80;99.90;;;;;;4991580;28;20052;-68
2023/01/07 08:21:13;;;;;;;17.60;12.20;;;7.80;99.90;;;;;;4985905;28;20764;-68
2023/01/07 08:23:40;;;;;;;15.65;12.43;;;7.90;99.90;;;;;;4984674;28;20045;-68
2023/01/07 08:26:06;;;;;;;20.42;12.80;;;7.90;99.90;;;;;;4969448;28;20041;-68
2023/01/07 08:28:33;;;;;;;18.10;12.27;;;7.90;99.90;;;;;;4990190;28;20042;-68
2023/01/07 08:31:05;;;;;;;20.95;12.88;;;7.90;99.90;;;;;;4987510;28;20042;-68
2023/01/07 08:33:36;;;;;;;17.35;11.40;;;8.00;99.90;;;;;;4986464;28;20043;-68
2023/01/07 08:36:05;;;;;;;13.15;10.95;;;8.00;99.90;;;;;;4990838;28;20045;-69
2023/01/07 08:38:37;;;;;;;17.30;13.43;;;8.00;99.90;;;;;;4986566;28;20515;-68
2023/01/07 08:41:04;;;;;;;14.13;11.02;;;8.00;99.90;;;;;;4989175;28;20052;-68
2023/01/07 08:43:32;;;;;;;17.40;13.52;;;8.00;99.90;;;;;;5001699;28;20531;-68
2023/01/07 08:45:58;;;;;;;13.13;10.43;;;8.10;99.90;;;;;;4991357;28;20046;-68
2023/01/07 08:48:26;;;;;;;14.57;11.30;;;8.10;99.90;;;;;;5010501;28;20048;-68
2023/01/07 08:50:53;;;;;;;12.77;11.43;;;8.10;99.90;;;;;;4987866;28;20041;-68
2023/01/07 08:53:21;;;;;;;13.05;10.68;;;8.10;99.90;;;;;;4983981;28;20129;-68
2023/01/07 08:55:48;;;;;;;12.93;11.18;;;8.20;99.90;;;;;;4990181;28;20046;-68
2023/01/07 08:58:16;;;;;;;10.85;8.57;;;8.20;99.90;;;;;;4989233;28;20124;-68
2023/01/07 09:00:43;;;;;;;10.18;9.05;;;8.10;99.90;;;;;;5003004;28;20504;-68
2023/01/07 09:03:09;;;;;;;9.15;8.25;;;8.20;99.90;;;;;;4990146;28;20049;-68
2023/01/07 09:05:36;;;;;;;11.65;7.80;;;8.20;99.90;;;;;;4992504;28;20679;-68
2023/01/07 09:08:03;;;;;;;10.60;7.40;;;8.20;99.90;;;;;;4990096;28;20157;-70
2023/01/07 09:10:30;;;;;;;8.80;7.78;;;8.20;99.90;;;;;;4973034;28;20295;-68
2023/01/07 09:12:57;;;;;;;9.18;8.27;;;8.20;99.90;;;;;;4999226;28;20415;-68
2023/01/07 09:15:24;;;;;;;8.05;7.35;;;8.20;99.90;;;;;;4987644;28;20042;-68
2023/01/07 09:17:51;;;;;;;8.13;7.32;;;8.30;99.90;;;;;;5010626;23;20104;-74
2023/01/07 09:20:18;;;;;;;6.45;5.93;;;8.40;99.90;;;;;;4991989;28;20053;-73
2023/01/07 09:22:46;;;;;;;7.10;6.50;;;8.50;99.90;;;;;;4996676;28;20060;-73
2023/01/07 09:25:12;;;;;;;8.70;6.72;;;8.50;99.90;;;;;;4975969;28;20289;-73
2023/01/07 09:27:41;;;;;;;7.70;6.90;;;8.60;99.90;;;;;;4975649;28;20325;-73
2023/01/07 09:30:08;;;;;;;8.30;7.53;;;8.60;99.90;;;;;;4975749;28;20108;-73
2023/01/07 09:32:35;;;;;;;7.38;6.88;;;8.70;99.90;;;;;;4964754;28;20096;-73
2023/01/07 09:35:03;;;;;;;8.30;7.80;;;8.70;99.90;;;;;;4970261;28;20084;-75
2023/01/07 09:37:30;;;;;;;8.20;7.72;;;8.70;99.90;;;;;;4976904;28;20041;-73
2023/01/07 09:39:59;;;;;;;8.90;8.30;;;8.70;99.90;;;;;;4981671;28;20046;-72
2023/01/07 09:42:40;;;;;;;8.77;8.18;;;8.70;99.90;;;;;;4988159;28;20149;-73
2023/01/07 09:45:17;;;;;;;8.73;8.23;;;8.80;99.90;;;;;;4978671;28;20054;-73
2023/01/07 09:47:52;;;;;;;9.15;8.45;;;8.80;99.90;;;;;;4960288;28;20045;-74
2023/01/07 09:50:23;;;;;;;9.43;8.82;;;8.90;99.90;;;;;;4973404;28;20423;-73
2023/01/07 09:52:55;;;;;;;9.52;9.02;;;8.80;99.90;;;;;;4981478;28;20056;-74
2023/01/07 09:55:28;;;;;;;10.10;9.50;;;8.90;99.90;;;;;;4974204;28;20038;-72
2023/01/07 09:57:55;;;;;;;10.77;10.00;;;8.90;99.90;;;;;;4977258;28;20502;-73
2023/01/07 10:00:23;;;;;;;12.20;11.38;;;8.90;99.90;;;;;;4967871;28;20045;-74
2023/01/07 10:03:14;;;;;;;21.48;19.17;;;8.90;99.90;;;;;;4982157;28;20193;-73
2023/01/07 10:06:18;;;;;;;13.30;12.43;;;9.00;99.90;;;;;;4975159;28;20125;-74
2023/01/07 10:09:18;;;;;;;19.63;17.70;;;8.90;99.90;;;;;;4969360;28;20246;-74
2023/01/07 10:12:15;;;;;;;16.13;14.70;;;9.00;99.90;;;;;;4977924;28;20042;-72
2023/01/07 10:15:31;;;;;;;10.85;10.05;;;9.00;99.90;;;;;;4982095;28;20425;-72
2023/01/07 10:18:12;;;;;;;11.70;10.90;;;9.10;99.90;;;;;;4968875;28;20041;-73
2023/01/07 10:21:12;;;;;;;12.13;11.23;;;9.10;99.90;;;;;;4980544;28;20566;-72
2023/01/07 10:23:42;;;;;;;14.30;13.30;;;9.10;99.90;;;;;;4973758;28;20050;-72
2023/01/07 10:26:26;;;;;;;12.63;11.57;;;9.10;99.90;;;;;;4975021;28;20545;-72
2023/01/07 10:29:07;;;;;;;13.38;12.55;;;9.30;99.90;;;;;;4979230;28;20105;-71
2023/01/07 10:31:34;;;;;;;13.88;13.05;;;9.30;99.90;;;;;;4976582;28;20039;-72
2023/01/07 10:34:01;;;;;;;13.95;13.15;;;9.30;99.90;;;;;;4974859;28;20053;-72
2023/01/07 10:36:38;;;;;;;10.63;9.93;;;9.40;99.90;;;;;;4981538;28;20048;-73
2023/01/07 10:39:44;;;;;;;12.88;12.07;;;9.50;99.90;;;;;;4961917;28;20276;-73
2023/01/07 10:42:26;;;;;;;14.20;13.32;;;9.50;99.90;;;;;;4956521;28;20141;-71
2023/01/07 10:45:14;;;;;;;15.48;14.48;;;9.50;99.90;;;;;;4980068;28;20064;-72
2023/01/07 10:48:00;;;;;;;15.27;14.30;;;9.50;99.90;;;;;;4977294;28;20499;-71
2023/01/07 10:50:32;;;;;;;;;;;9.50;99.90;;;;;;4976959;28;20670;-73
2023/01/07 10:53:08;;;;;;;15.63;14.73;;;9.50;99.90;;;;;;4975989;28;19933;-73
2023/01/07 10:55:56;;;;;;;14.15;13.30;;;9.50;99.90;;;;;;4971880;28;20305;-74
2023/01/07 10:58:25;;;;;;;16.88;15.80;;;9.50;99.90;;;;;;5008983;28;20048;-74
2023/01/07 11:00:51;;;;;;;15.85;14.85;;;9.40;99.90;;;;;;4977201;28;20117;-73
2023/01/07 11:03:21;;;;;;;13.73;12.85;;;9.40;99.90;;;;;;5002502;28;20112;-73
2023/01/07 11:05:56;;;;;;;14.73;13.73;;;9.40;99.90;;;;;;4983984;28;20068;-72
2023/01/07 11:08:38;;;;;;;14.85;13.80;;;9.30;99.90;;;;;;4975669;28;20046;-73
2023/01/07 11:11:11;;;;;;;14.68;13.68;;;9.30;99.90;;;;;;4976174;28;20056;-73
2023/01/07 11:13:40;;;;;;;15.82;14.65;;;9.40;99.90;;;;;;4975583;28;20042;-73
2023/01/07 11:16:24;;;;;;;14.90;14.02;;;9.30;99.90;;;;;;4976993;28;20523;-73
2023/01/07 11:19:02;;;;;;;15.52;14.60;;;9.30;99.90;;;;;;4974796;28;20132;-72
2023/01/07 11:21:44;;;;;;;16.35;15.07;;;9.30;99.90;;;;;;4973452;28;20042;-73
2023/01/07 11:24:33;;;;;;;18.30;17.10;;;9.30;99.90;;;;;;4975565;28;20573;-73
2023/01/07 11:27:09;;;;;;;16.10;15.00;;;9.40;99.90;;;;;;4965665;28;20108;-73
2023/01/07 11:29:41;;;;;;;17.35;16.13;;;9.40;99.90;;;;;;5010558;28;20937;-73
2023/01/07 11:32:24;;;;;;;22.48;20.60;;;9.40;99.90;;;;;;4973145;28;20145;-73
2023/01/07 11:34:59;;;;;;;18.95;17.65;;;9.30;99.90;;;;;;4974790;28;20119;-72
2023/01/07 11:37:38;;;;;;;16.23;15.32;;;9.40;99.90;;;;;;4973768;28;20133;-73
2023/01/07 11:40:11;;;;;;;16.55;15.30;;;9.30;99.90;;;;;;4977163;28;20079;-74
2023/01/07 11:42:51;;;;;;;16.17;15.15;;;9.30;99.90;;;;;;4968515;28;20138;-72
2023/01/07 11:45:21;;;;;;;16.85;15.75;;;9.30;99.90;;;;;;4972932;28;20045;-73
2023/01/07 11:48:07;;;;;;;19.27;17.80;;;9.30;99.90;;;;;;4976467;28;20045;-73
2023/01/07 11:50:53;;;;;;;17.20;16.05;;;9.20;99.90;;;;;;4975325;28;20051;-73
2023/01/07 11:53:44;;;;;;;15.82;14.90;;;9.20;99.90;;;;;;4971309;28;20042;-72
2023/01/07 11:56:15;;;;;;;17.85;16.45;;;9.10;99.90;;;;;;4969387;28;20158;-74
2023/01/07 11:58:47;;;;;;;15.85;14.95;;;9.00;99.90;;;;;;5000798;28;20557;-73
2023/01/07 12:01:19;;;;;;;15.95;15.02;;;9.00;99.90;;;;;;4970010;28;20046;-73
2023/01/07 12:03:55;;;;;;;16.20;15.20;;;9.00;99.90;;;;;;4973766;28;20062;-72
2023/01/07 12:06:26;;;;;;;15.98;14.77;;;8.90;99.90;;;;;;4970171;28;20524;-73
2023/01/07 12:09:17;;;;;;;16.85;15.68;;;8.90;99.90;;;;;;4996576;28;20474;-73
2023/01/07 12:11:45;;;;;;;16.58;15.52;;;8.90;99.90;;;;;;4987195;28;20064;-74
2023/01/07 12:14:37;;;;;;;16.25;15.15;;;8.90;99.90;;;;;;4974448;28;20935;-73
2023/01/07 12:17:17;;;;;;;17.20;16.20;;;8.90;99.90;;;;;;4973110;28;20045;-74
2023/01/07 12:20:10;;;;;;;16.80;15.77;;;9.00;99.90;;;;;;4992718;28;20056;-74
2023/01/07 12:22:59;;;;;;;17.45;16.30;;;8.90;99.90;;;;;;4986763;28;20135;-74
2023/01/07 12:25:53;;;;;;;19.23;17.83;;;8.90;99.90;;;;;;4973296;28;20460;-72
2023/01/07 12:28:34;;;;;;;18.38;17.20;;;9.00;99.90;;;;;;4971594;28;20133;-72
2023/01/07 12:31:26;;;;;;;18.40;17.30;;;9.00;99.90;;;;;;4971463;28;20132;-73
2023/01/07 12:34:06;;;;;;;18.90;17.90;;;8.90;99.90;;;;;;4981966;28;20049;-74
2023/01/07 12:36:59;;;;;;;18.58;17.63;;;9.00;99.90;;;;;;4975485;28;20518;-72
2023/01/07 12:39:38;;;;;;;20.33;19.10;;;9.00;99.90;;;;;;4969826;28;21589;-72
2023/01/07 12:42:19;;;;;;;19.40;17.98;;;9.00;99.90;;;;;;4999525;28;20409;-72
2023/01/07 12:44:50;;;;;;;21.08;19.77;;;9.00;99.90;;;;;;4972290;28;20065;-73
2023/01/07 12:48:00;;;;;;;21.58;20.38;;;9.10;99.90;;;;;;4954181;28;20454;-74
2023/01/07 12:50:40;;;;;;;21.95;20.10;;;9.00;99.90;;;;;;4958422;28;20358;-74
2023/01/07 12:53:13;;;;;;;22.80;21.20;;;9.00;99.90;;;;;;4998549;28;20077;-74
2023/01/07 12:55:51;;;;;;;21.77;20.30;;;9.00;99.90;;;;;;4973312;28;20050;-73
2023/01/07 12:58:45;;;;;;;22.83;21.40;;;9.10;99.90;;;;;;4972755;28;20048;-73
2023/01/07 13:01:21;;;;;;;23.63;22.02;;;9.10;99.90;;;;;;4965740;28;20048;-73
2023/01/07 13:04:04;;;;;;;25.63;24.13;;;9.10;99.90;;;;;;4976632;28;20263;-72
2023/01/07 13:06:41;;;;;;;21.90;20.70;;;9.10;99.90;;;;;;4971469;28;20050;-73
2023/01/07 13:09:32;;;;;;;24.48;22.95;;;9.10;99.90;;;;;;4975261;28;20437;-73
2023/01/07 13:15:25;;;;;;;24.15;22.77;;;9.10;99.90;;;;;;4979058;28;20498;-74
2023/01/07 13:17:54;;;;;;;23.95;22.23;;;9.20;99.90;;;;;;4978377;28;20261;-71
2023/01/07 13:20:30;;;;;;;21.98;20.83;;;9.20;99.90;;;;;;4973722;28;20048;-71
2023/01/07 13:22:58;;;;;;;24.10;22.73;;;9.20;99.90;;;;;;4973622;28;20041;-71
2023/01/07 13:25:46;;;;;;;23.35;22.15;;;9.30;99.90;;;;;;4976599;28;20041;-73